Main page
METAR-TAF:

Airports :

Eleusina, Greece

latitude: 38-04N, longitude: 023-33E, elevation: 44 m

Current weather observation

The report was made 27 minutes ago, at 21:50 UTC
Wind 5 kt from the North
Temperature 16°C
Humidity 59%
Pressure 1025 hPa
Visibility 10 km or more
Few clouds at a height of 2500 ft

METAR: LGEL 272150Z 36005KT 9999 FEW025 16/08 Q1025

Time: 01:17 (22:17 UTC)

Forecast

The report was made 5 hours and 17 minutes ago, at 17:00 UTC
Forecast valid from 27 at 18 UTC to 28 at 18 UTC
Wind 10 kt from the North
Visibility 10 km or more
Few clouds at a height of 3000 ft
Temporary
from 28 at 11 UTC to 28 at 15 UTC
Scattered clouds at a height of 2500 ft
Broken clouds at a height of 7000 ft

TAF: LGEL 271700Z 2718/2818 35010KT 9999 FEW030 TEMPO 2811/2815 SCT025 BKN070

METAR-TAF

Weather observations and forecasts of more than 4000 airports (METAR and TAF reports).

The available stations are represented by yellow and red dots on the map.

Hover mouse over dot to see the name of the station.

Then click to see weather observations and forecasts.

To change the map : click on the green buttons with a black cross to zoom in, on the green button with a dash to zoom out, or on the green arrows for adjacent maps.


METAR-TAF: